createdAt,value
2019-04-07T00:02:21.022Z,79.79
2019-04-07T00:04:47.752Z,80.13
2019-04-07T00:07:14.957Z,80.50
2019-04-07T00:09:41.568Z,80.13
2019-04-07T00:12:08.278Z,80.42
2019-04-07T00:14:34.930Z,80.73
2019-04-07T00:17:01.780Z,80.93
2019-04-07T00:19:28.586Z,80.77
2019-04-07T00:21:55.750Z,81.34
2019-04-07T00:24:22.595Z,81.59
2019-04-07T00:26:49.336Z,81.51
2019-04-07T00:29:16.093Z,80.86
2019-04-07T00:31:43.109Z,80.87
2019-04-07T00:34:09.962Z,80.96
2019-04-07T00:36:37.793Z,81.19
2019-04-07T00:39:06.891Z,81.25
2019-04-07T00:41:33.560Z,81.06
2019-04-07T00:44:00.395Z,81.08
2019-04-07T00:46:27.002Z,81.04
2019-04-07T00:48:53.950Z,81.13
2019-04-07T00:51:20.822Z,80.23
2019-04-07T00:53:47.455Z,80.13
2019-04-07T00:56:14.628Z,80.69
2019-04-07T00:58:41.386Z,80.43
2019-04-07T01:01:09.141Z,80.62
2019-04-07T01:03:35.801Z,80.72
2019-04-07T01:06:02.468Z,80.41
2019-04-07T01:08:29.397Z,80.18
2019-04-07T01:10:56.223Z,79.43
2019-04-07T01:13:24.013Z,79.06
2019-04-07T01:15:51.396Z,78.92
2019-04-07T01:18:18.230Z,79.11
2019-04-07T01:20:45.212Z,79.23
2019-04-07T01:23:12.712Z,79.06
2019-04-07T01:25:39.683Z,78.90
2019-04-07T01:28:06.677Z,79.11
2019-04-07T01:30:33.668Z,79.95
2019-04-07T01:33:00.915Z,79.95
2019-04-07T01:35:27.983Z,79.96
2019-04-07T01:37:56.144Z,79.66
2019-04-07T01:40:23.509Z,79.70
2019-04-07T01:42:55.247Z,79.64
2019-04-07T01:45:39.244Z,80.54
2019-04-07T01:48:13.916Z,79.64
2019-04-07T01:50:51.841Z,79.89
2019-04-07T01:53:20.329Z,79.72
2019-04-07T01:55:58.660Z,79.82
2019-04-07T01:58:33.042Z,79.65
2019-04-07T02:01:18.362Z,79.66
2019-04-07T02:03:58.980Z,79.20
2019-04-07T02:06:33.317Z,79.37
2019-04-07T02:09:01.839Z,79.67
2019-04-07T02:11:48.020Z,79.16
2019-04-07T02:14:19.233Z,79.49
2019-04-07T02:16:47.674Z,79.16
2019-04-07T02:19:19.306Z,79.35
2019-04-07T02:21:53.534Z,79.51
2019-04-07T02:24:38.898Z,79.39
2019-04-07T02:27:07.659Z,79.38
2019-04-07T02:29:48.840Z,79.46
2019-04-07T02:32:34.478Z,79.43
2019-04-07T02:35:20.892Z,79.98
2019-04-07T02:38:02.242Z,79.79
2019-04-07T02:40:48.766Z,79.59
2019-04-07T02:43:35.890Z,80.13
2019-04-07T02:46:04.411Z,80.67
2019-04-07T02:48:45.021Z,81.23
2019-04-07T02:51:22.893Z,80.43
2019-04-07T02:54:07.762Z,80.55
2019-04-07T02:56:37.412Z,80.85
2019-04-07T02:59:06.068Z,81.41
2019-04-07T03:01:51.990Z,81.29
2019-04-07T03:04:24.501Z,81.54
2019-04-07T03:06:58.966Z,81.67
2019-04-07T03:09:28.232Z,82.10
2019-04-07T03:12:04.197Z,82.37
2019-04-07T03:14:34.452Z,82.09
2019-04-07T03:17:20.149Z,81.90
2019-04-07T03:19:57.788Z,81.89
2019-04-07T03:22:42.438Z,82.39
2019-04-07T03:25:14.127Z,82.37
2019-04-07T03:27:52.710Z,82.28
2019-04-07T03:30:40.511Z,82.26
2019-04-07T03:33:27.499Z,82.41
2019-04-07T03:36:18.013Z,82.15
2019-04-07T03:38:43.315Z,82.34
2019-04-07T03:41:21.759Z,82.46
2019-04-07T03:43:59.342Z,82.50
2019-04-07T03:46:34.653Z,82.80
2019-04-07T03:49:18.778Z,82.45
2019-04-07T03:51:59.875Z,82.69
2019-04-07T03:54:28.488Z,82.74
2019-04-07T03:57:06.983Z,82.65
2019-04-07T03:59:44.710Z,82.43
2019-04-07T04:02:30.193Z,82.35
2019-04-07T04:04:59.613Z,82.35
2019-04-07T04:07:34.294Z,82.84
2019-04-07T04:09:58.767Z,83.17
2019-04-07T04:12:34.196Z,82.52
2019-04-07T04:15:06.741Z,82.61
2019-04-07T04:17:34.478Z,82.63
2019-04-07T04:20:02.319Z,82.76
2019-04-07T04:22:29.670Z,82.37
2019-04-07T04:24:57.759Z,82.22
2019-04-07T04:27:26.228Z,82.65
2019-04-07T04:29:53.464Z,82.55
2019-04-07T04:32:21.846Z,82.66
2019-04-07T04:34:49.643Z,82.01
2019-04-07T04:37:21.438Z,82.17
2019-04-07T04:39:45.034Z,82.17
2019-04-07T04:42:13.535Z,82.10
2019-04-07T04:44:40.541Z,82.04
2019-04-07T04:47:08.076Z,81.93
2019-04-07T04:49:35.271Z,82.25
2019-04-07T04:52:03.017Z,82.30
2019-04-07T04:54:29.816Z,82.30
2019-04-07T04:56:56.977Z,82.83
2019-04-07T04:59:23.896Z,82.94
2019-04-07T05:01:51.293Z,83.09
2019-04-07T05:04:19.078Z,83.46
2019-04-07T05:06:46.485Z,82.87
2019-04-07T05:09:13.380Z,82.95
2019-04-07T05:11:40.788Z,83.02
2019-04-07T05:14:08.857Z,82.95
2019-04-07T05:16:35.706Z,82.17
2019-04-07T05:19:02.721Z,82.32
2019-04-07T05:21:29.539Z,82.20
2019-04-07T05:23:56.569Z,82.71
2019-04-07T05:26:23.958Z,83.03
2019-04-07T05:28:50.901Z,82.52
2019-04-07T05:31:17.757Z,82.85
2019-04-07T05:33:44.916Z,82.85
2019-04-07T05:36:12.229Z,82.68
2019-04-07T05:38:39.530Z,82.99
2019-04-07T05:41:06.552Z,82.91
2019-04-07T05:43:33.882Z,82.90
2019-04-07T05:46:00.838Z,82.89
2019-04-07T05:48:27.985Z,82.22
2019-04-07T05:50:57.926Z,82.49
2019-04-07T05:53:23.349Z,82.66
2019-04-07T05:55:53.759Z,82.52
2019-04-07T05:58:19.020Z,82.63
2019-04-07T06:00:46.980Z,81.69
2019-04-07T06:03:14.369Z,81.72
2019-04-07T06:05:41.045Z,81.74
2019-04-07T06:08:22.557Z,81.11
2019-04-07T06:10:37.018Z,80.51
2019-04-07T06:13:04.113Z,80.76
2019-04-07T06:15:31.241Z,80.68
2019-04-07T06:18:00.614Z,80.68
2019-04-07T06:20:26.587Z,79.78
2019-04-07T06:22:54.446Z,80.20
2019-04-07T06:25:21.372Z,79.41
2019-04-07T06:27:48.885Z,79.49
2019-04-07T06:30:17.514Z,78.66
2019-04-07T06:32:44.746Z,78.66
2019-04-07T06:35:13.311Z,79.21
2019-04-07T06:37:40.710Z,78.29
2019-04-07T06:40:07.740Z,78.53
2019-04-07T06:42:34.397Z,78.41
2019-04-07T06:45:01.671Z,79.44
2019-04-07T06:47:31.263Z,79.31
2019-04-07T06:50:00.866Z,78.62
2019-04-07T06:52:30.178Z,79.05
2019-04-07T06:55:15.794Z,80.42
2019-04-07T06:58:01.978Z,81.04
2019-04-07T07:00:35.292Z,81.69
2019-04-07T07:03:20.323Z,82.30
2019-04-07T07:05:54.624Z,82.55
2019-04-07T07:08:28.993Z,82.37
2019-04-07T07:11:05.787Z,82.72
2019-04-07T07:13:36.503Z,82.03
2019-04-07T07:16:07.951Z,81.87
2019-04-07T07:18:35.762Z,82.16
2019-04-07T07:21:07.473Z,81.73
2019-04-07T07:23:36.407Z,80.48
2019-04-07T07:26:04.229Z,80.27
2019-04-07T07:28:32.585Z,80.37
2019-04-07T07:31:00.028Z,80.52
2019-04-07T07:33:26.972Z,81.12
2019-04-07T07:35:53.744Z,80.32
2019-04-07T07:38:20.435Z,78.20
2019-04-07T07:40:47.786Z,77.99
2019-04-07T07:43:15.616Z,77.95
2019-04-07T07:45:45.100Z,77.08
2019-04-07T07:48:10.976Z,76.89
2019-04-07T07:50:40.119Z,76.44
2019-04-07T07:53:06.802Z,76.02
2019-04-07T07:55:35.956Z,76.42
2019-04-07T07:58:02.727Z,76.22
2019-04-07T08:00:29.568Z,76.25
2019-04-07T08:02:56.273Z,75.29
2019-04-07T08:05:23.764Z,76.34
2019-04-07T08:07:51.207Z,76.36
2019-04-07T08:10:18.696Z,76.87
2019-04-07T08:12:48.614Z,76.53
2019-04-07T08:15:13.970Z,76.34
2019-04-07T08:17:40.979Z,76.71
2019-04-07T08:20:07.944Z,76.92
2019-04-07T08:22:40.633Z,77.27
2019-04-07T08:25:04.326Z,78.03
2019-04-07T08:27:32.045Z,76.95
2019-04-07T08:30:19.592Z,77.18
2019-04-07T08:32:46.284Z,73.18
2019-04-07T08:35:13.137Z,74.89
2019-04-07T08:37:40.509Z,74.96
2019-04-07T08:40:07.837Z,75.36
2019-04-07T08:42:34.674Z,73.77
2019-04-07T08:45:01.593Z,75.30
2019-04-07T08:47:28.983Z,73.51
2019-04-07T08:49:57.744Z,73.65
2019-04-07T08:52:24.930Z,71.72
2019-04-07T08:54:53.361Z,70.96
2019-04-07T08:57:20.167Z,72.60
2019-04-07T08:59:46.855Z,72.24
2019-04-07T09:02:13.677Z,72.89
2019-04-07T09:04:41.187Z,70.52
2019-04-07T09:07:08.165Z,68.05
2019-04-07T09:09:36.981Z,69.17
2019-04-07T09:12:03.435Z,69.47
2019-04-07T09:14:30.140Z,68.68
2019-04-07T09:17:08.265Z,69.66
2019-04-07T09:19:40.056Z,65.59
2019-04-07T09:22:14.154Z,66.39
2019-04-07T09:24:57.912Z,65.85
2019-04-07T09:27:29.055Z,65.79
2019-04-07T09:30:06.036Z,62.90
2019-04-07T09:32:49.945Z,63.42
2019-04-07T09:35:36.120Z,63.28
2019-04-07T09:38:24.944Z,64.34
2019-04-07T09:41:01.656Z,62.64
2019-04-07T09:43:33.465Z,62.04
2019-04-07T09:46:11.803Z,61.23
2019-04-07T09:48:50.956Z,60.99
2019-04-07T09:51:17.673Z,60.13
2019-04-07T09:53:48.816Z,60.56
2019-04-07T09:56:17.287Z,59.91
2019-04-07T09:59:02.511Z,60.37
2019-04-07T10:01:31.818Z,61.38
2019-04-07T10:04:17.299Z,62.13
2019-04-07T10:06:57.733Z,61.19
2019-04-07T10:09:43.471Z,60.62
2019-04-07T10:12:30.062Z,62.61
2019-04-07T10:15:08.032Z,61.56
2019-04-07T10:17:45.561Z,59.80
2019-04-07T10:20:31.463Z,59.73
2019-04-07T10:23:03.012Z,59.97
2019-04-07T10:25:50.697Z,60.58
2019-04-07T10:28:22.404Z,58.03
2019-04-07T10:30:57.048Z,58.69
2019-04-07T10:33:31.649Z,55.93
2019-04-07T10:36:00.115Z,53.48
2019-04-07T10:38:45.320Z,51.82
2019-04-07T10:41:17.205Z,55.76
2019-04-07T10:43:48.412Z,51.50
2019-04-07T10:46:16.912Z,52.00
2019-04-07T10:48:51.192Z,50.44
2019-04-07T10:51:25.702Z,47.97
2019-04-07T10:53:59.797Z,50.04
2019-04-07T10:56:46.094Z,47.94
2019-04-07T10:59:17.475Z,48.33
2019-04-07T11:01:49.129Z,47.97
2019-04-07T11:04:30.494Z,50.42
2019-04-07T11:07:05.278Z,51.51
2019-04-07T11:09:50.179Z,54.16
2019-04-07T11:12:30.818Z,54.60
2019-04-07T11:15:08.191Z,53.44
2019-04-07T11:17:53.619Z,53.50
2019-04-07T11:20:28.143Z,52.17
2019-04-07T11:23:11.972Z,51.49
2019-04-07T11:25:47.782Z,51.61
2019-04-07T11:28:31.803Z,53.45
2019-04-07T11:31:15.756Z,53.78
2019-04-07T11:33:50.358Z,54.26
2019-04-07T11:36:28.846Z,55.01
2019-04-07T11:39:00.604Z,55.09
2019-04-07T11:41:41.324Z,55.06
2019-04-07T11:44:16.381Z,54.93
2019-04-07T11:46:51.991Z,55.49
2019-04-07T11:49:26.659Z,55.04
2019-04-07T11:52:10.439Z,55.78
2019-04-07T11:54:55.635Z,55.89
2019-04-07T11:57:45.124Z,55.16
2019-04-07T12:00:16.548Z,55.14
2019-04-07T12:02:45.470Z,55.32
2019-04-07T12:05:31.135Z,53.80
2019-04-07T12:08:16.481Z,53.92
2019-04-07T12:10:58.706Z,51.92
2019-04-07T12:13:22.086Z,52.50
2019-04-07T12:15:50.915Z,54.48
2019-04-07T12:18:35.268Z,53.22
2019-04-07T12:21:22.720Z,52.51
2019-04-07T12:24:09.578Z,47.50
2019-04-07T12:26:56.581Z,48.06
2019-04-07T12:29:28.807Z,50.17
2019-04-07T12:32:12.281Z,49.62
2019-04-07T12:34:44.025Z,48.77
2019-04-07T12:37:11.116Z,49.96
2019-04-07T12:39:48.767Z,50.79
2019-04-07T12:42:33.293Z,51.11
2019-04-07T12:45:05.162Z,51.42
2019-04-07T12:47:39.848Z,48.01
2019-04-07T12:50:16.660Z,50.97
2019-04-07T12:52:45.193Z,48.67
2019-04-07T12:55:22.771Z,48.24
2019-04-07T12:58:04.769Z,48.21
2019-04-07T13:00:57.799Z,50.70
2019-04-07T13:03:18.632Z,50.95
2019-04-07T13:05:47.111Z,51.50
2019-04-07T13:08:22.550Z,52.64
2019-04-07T13:10:49.416Z,52.71
2019-04-07T13:13:34.258Z,53.90
2019-04-07T13:16:06.395Z,54.28
2019-04-07T13:18:40.777Z,54.60
2019-04-07T13:21:25.734Z,54.64
2019-04-07T13:24:00.412Z,55.25
2019-04-07T13:26:35.658Z,56.06
2019-04-07T13:29:17.333Z,56.70
2019-04-07T13:31:58.827Z,57.25
2019-04-07T13:34:31.140Z,57.33
2019-04-07T13:37:03.447Z,55.24
2019-04-07T13:39:35.939Z,52.52
2019-04-07T13:42:03.271Z,51.71
2019-04-07T13:44:38.830Z,52.65
2019-04-07T13:47:07.242Z,52.68
2019-04-07T13:49:52.336Z,51.05
2019-04-07T13:52:26.659Z,51.19
2019-04-07T13:55:05.144Z,53.06
2019-04-07T13:57:46.196Z,54.78
2019-04-07T14:00:16.846Z,55.13
2019-04-07T14:02:45.564Z,55.44
2019-04-07T14:05:33.165Z,56.35
2019-04-07T14:08:12.042Z,58.33
2019-04-07T14:10:40.555Z,58.19
2019-04-07T14:13:25.661Z,59.21
2019-04-07T14:16:10.957Z,59.34
2019-04-07T14:18:56.938Z,59.28
2019-04-07T14:21:26.230Z,59.92
2019-04-07T14:24:10.172Z,60.69
2019-04-07T14:26:44.910Z,60.91
2019-04-07T14:29:31.669Z,60.37
2019-04-07T14:32:02.964Z,61.07
2019-04-07T14:34:41.293Z,60.95
2019-04-07T14:37:12.700Z,61.49
2019-04-07T14:39:44.459Z,62.31
2019-04-07T14:42:13.191Z,62.28
2019-04-07T14:44:41.593Z,62.68
2019-04-07T14:47:16.247Z,62.59
2019-04-07T14:49:52.101Z,62.70
2019-04-07T14:52:25.028Z,62.56
2019-04-07T14:54:57.106Z,63.15
2019-04-07T14:57:25.528Z,64.35
2019-04-07T15:00:00.077Z,63.87
2019-04-07T15:02:27.933Z,64.74
2019-04-07T15:05:14.874Z,65.26
2019-04-07T15:07:46.997Z,65.80
2019-04-07T15:10:28.434Z,66.03
2019-04-07T15:12:57.903Z,65.81
2019-04-07T15:15:24.806Z,66.01
2019-04-07T15:17:52.367Z,66.77
2019-04-07T15:21:00.348Z,66.07
2019-04-07T15:23:33.508Z,65.96
2019-04-07T15:26:00.316Z,66.73
2019-04-07T15:28:29.770Z,67.48
2019-04-07T15:30:55.657Z,67.04
2019-04-07T15:33:22.443Z,67.42
2019-04-07T15:35:50.576Z,68.01
2019-04-07T15:38:23.833Z,67.49
2019-04-07T15:40:47.183Z,67.84
2019-04-07T15:43:13.766Z,66.55
2019-04-07T15:45:42.657Z,66.33
2019-04-07T15:48:09.045Z,67.40
2019-04-07T15:50:35.743Z,67.35
2019-04-07T15:53:02.739Z,68.40
2019-04-07T15:55:43.170Z,67.61
2019-04-07T15:57:59.586Z,67.57
2019-04-07T16:00:26.602Z,67.63
2019-04-07T16:02:53.707Z,68.35
2019-04-07T16:05:21.600Z,68.71
2019-04-07T16:07:51.301Z,67.31
2019-04-07T16:10:21.131Z,67.96
2019-04-07T16:12:49.943Z,67.27
2019-04-07T16:15:16.520Z,67.08
2019-04-07T16:17:43.581Z,67.67
2019-04-07T16:20:20.727Z,68.12
2019-04-07T16:22:44.195Z,68.65
2019-04-07T16:25:11.198Z,69.57
2019-04-07T16:27:39.168Z,69.15
2019-04-07T16:30:09.866Z,69.64
2019-04-07T16:32:37.616Z,68.79
2019-04-07T16:35:10.405Z,67.87
2019-04-07T16:37:37.568Z,67.73
2019-04-07T16:40:10.133Z,69.11
2019-04-07T16:42:34.683Z,68.06
2019-04-07T16:45:01.807Z,67.74
2019-04-07T16:47:32.722Z,67.92
2019-04-07T16:49:57.383Z,68.36
2019-04-07T16:52:24.428Z,68.11
2019-04-07T16:54:51.590Z,68.68
2019-04-07T16:57:18.621Z,69.39
2019-04-07T16:59:45.238Z,68.84
2019-04-07T17:02:14.421Z,68.83
2019-04-07T17:04:41.002Z,69.20
2019-04-07T17:07:12.517Z,69.24
2019-04-07T17:09:36.677Z,69.39
2019-04-07T17:12:03.652Z,69.42
2019-04-07T17:14:34.445Z,69.29
2019-04-07T17:17:00.265Z,69.77
2019-04-07T17:19:27.593Z,69.75
2019-04-07T17:21:56.231Z,69.95
2019-04-07T17:24:27.802Z,69.85
2019-04-07T17:26:51.800Z,70.06
2019-04-07T17:29:20.932Z,70.13
2019-04-07T17:31:48.636Z,69.80
2019-04-07T17:34:15.721Z,68.97
2019-04-07T17:36:42.865Z,69.41
2019-04-07T17:39:14.468Z,69.05
2019-04-07T17:41:41.709Z,68.56
2019-04-07T17:44:16.950Z,68.63
2019-04-07T17:46:43.830Z,68.41
2019-04-07T17:49:26.281Z,68.18
2019-04-07T17:51:54.742Z,68.17
2019-04-07T17:54:32.434Z,68.67
2019-04-07T17:57:10.405Z,68.48
2019-04-07T17:59:44.813Z,68.59
2019-04-07T18:02:11.807Z,68.40
2019-04-07T18:04:50.386Z,68.39
2019-04-07T18:07:20.134Z,68.18
2019-04-07T18:10:05.459Z,68.33
2019-04-07T18:12:33.965Z,68.54
2019-04-07T18:15:19.185Z,67.95
2019-04-07T18:18:05.824Z,67.85
2019-04-07T18:20:41.126Z,68.43
2019-04-07T18:23:24.079Z,69.38
2019-04-07T18:25:53.111Z,69.14
2019-04-07T18:28:25.955Z,69.16
2019-04-07T18:31:02.699Z,69.15
2019-04-07T18:33:50.063Z,69.53
2019-04-07T18:36:19.428Z,69.92
2019-04-07T18:38:53.866Z,69.73
2019-04-07T18:41:25.177Z,69.89
2019-04-07T18:44:08.560Z,69.80
2019-04-07T18:46:36.134Z,69.92
2019-04-07T18:49:05.933Z,70.20
2019-04-07T18:51:48.400Z,70.20
2019-04-07T18:54:33.891Z,70.17
2019-04-07T18:57:10.851Z,69.89
2019-04-07T19:00:01.275Z,70.12
2019-04-07T19:02:35.030Z,70.26
2019-04-07T19:05:07.047Z,70.47
2019-04-07T19:07:47.793Z,70.28
2019-04-07T19:10:25.661Z,70.33
2019-04-07T19:13:06.443Z,70.68
2019-04-07T19:15:30.668Z,70.81
2019-04-07T19:18:05.849Z,71.07
2019-04-07T19:20:38.407Z,70.55
2019-04-07T19:23:13.490Z,70.69
2019-04-07T19:25:58.915Z,71.25
2019-04-07T19:28:42.350Z,71.59
2019-04-07T19:31:27.807Z,71.75
2019-04-07T19:33:58.707Z,72.44
2019-04-07T19:36:27.621Z,71.77
2019-04-07T19:38:59.165Z,72.13
2019-04-07T19:41:34.169Z,71.45
2019-04-07T19:44:18.896Z,71.28
2019-04-07T19:46:48.174Z,71.91
2019-04-07T19:49:20.418Z,71.88
2019-04-07T19:51:53.568Z,71.79
2019-04-07T19:54:22.046Z,71.48
2019-04-07T19:56:50.540Z,71.24
2019-04-07T19:59:26.655Z,71.68
2019-04-07T20:01:58.242Z,71.60
2019-04-07T20:04:37.401Z,71.13
2019-04-07T20:07:09.236Z,71.07
2019-04-07T20:09:44.113Z,70.63
2019-04-07T20:12:16.893Z,70.80
2019-04-07T20:14:59.312Z,71.04
2019-04-07T20:17:24.474Z,71.35
2019-04-07T20:19:53.562Z,71.37
2019-04-07T20:22:23.148Z,71.32
2019-04-07T20:25:13.282Z,71.32
2019-04-07T20:27:42.783Z,71.71
2019-04-07T20:30:16.332Z,72.05
2019-04-07T20:32:59.469Z,72.25
2019-04-07T20:35:30.267Z,72.80
2019-04-07T20:38:02.006Z,73.00
2019-04-07T20:40:36.241Z,73.17
2019-04-07T20:43:14.402Z,73.18
2019-04-07T20:45:51.649Z,73.40
2019-04-07T20:48:20.147Z,73.50
2019-04-07T20:50:51.141Z,73.35
2019-04-07T20:53:23.895Z,74.58
2019-04-07T20:55:56.083Z,74.28
2019-04-07T20:58:46.399Z,73.66
2019-04-07T21:01:22.202Z,73.87
2019-04-07T21:03:56.475Z,73.93
2019-04-07T21:06:42.112Z,73.99
2019-04-07T21:09:10.652Z,74.25
2019-04-07T21:11:47.312Z,74.65
2019-04-07T21:14:18.666Z,75.08
2019-04-07T21:16:53.078Z,74.69
2019-04-07T21:19:35.477Z,74.63
2019-04-07T21:22:01.578Z,74.44
2019-04-07T21:24:49.770Z,74.96
2019-04-07T21:27:27.152Z,75.39
2019-04-07T21:29:56.604Z,75.12
2019-04-07T21:32:41.683Z,75.42
2019-04-07T21:35:29.222Z,75.55
2019-04-07T21:38:13.590Z,75.86
2019-04-07T21:40:43.674Z,75.57
2019-04-07T21:43:15.557Z,75.85
2019-04-07T21:45:54.499Z,75.56
2019-04-07T21:48:39.178Z,76.57
2019-04-07T21:51:16.443Z,76.28
2019-04-07T21:53:44.378Z,76.79
2019-04-07T21:56:18.768Z,76.57
2019-04-07T21:58:59.305Z,76.02
2019-04-07T22:01:28.318Z,75.30
2019-04-07T22:04:15.945Z,75.68
2019-04-07T22:06:48.788Z,76.16
2019-04-07T22:09:23.506Z,76.33
2019-04-07T22:11:50.263Z,76.62
2019-04-07T22:14:16.908Z,76.80
2019-04-07T22:16:43.670Z,76.83
2019-04-07T22:19:13.563Z,76.17
2019-04-07T22:21:38.868Z,75.92
2019-04-07T22:24:05.620Z,76.24
2019-04-07T22:26:33.505Z,76.64
2019-04-07T22:29:03.148Z,76.69
2019-04-07T22:31:31.078Z,77.05
2019-04-07T22:34:00.915Z,76.62
2019-04-07T22:36:27.270Z,76.27
2019-04-07T22:38:56.486Z,76.16
2019-04-07T22:41:24.641Z,76.31
2019-04-07T22:43:51.950Z,76.39
2019-04-07T22:46:24.551Z,77.30
2019-04-07T22:48:48.160Z,77.52
2019-04-07T22:51:14.966Z,77.51
2019-04-07T22:53:41.748Z,77.72
2019-04-07T22:56:09.114Z,78.15
2019-04-07T22:58:36.173Z,78.42
2019-04-07T23:01:03.601Z,78.69
2019-04-07T23:03:31.283Z,78.21
2019-04-07T23:05:59.162Z,77.97
2019-04-07T23:08:26.490Z,77.72
2019-04-07T23:10:53.303Z,77.48
2019-04-07T23:13:19.925Z,77.52
2019-04-07T23:15:47.424Z,77.19
2019-04-07T23:18:15.859Z,76.97
2019-04-07T23:20:42.740Z,76.93
2019-04-07T23:23:09.491Z,77.54
2019-04-07T23:25:36.484Z,77.88
2019-04-07T23:28:03.527Z,77.59
2019-04-07T23:30:31.340Z,77.47
2019-04-07T23:32:58.231Z,77.53
2019-04-07T23:35:24.946Z,77.80
2019-04-07T23:37:51.676Z,77.94
2019-04-07T23:40:18.406Z,78.32
2019-04-07T23:42:45.151Z,78.12
2019-04-07T23:45:12.350Z,78.44
2019-04-07T23:47:39.117Z,78.30
2019-04-07T23:50:07.113Z,78.69
2019-04-07T23:52:33.866Z,78.67
2019-04-07T23:55:00.583Z,78.79
2019-04-07T23:57:27.554Z,79.07
2019-04-07T23:59:54.389Z,79.30
